Time;durP1;ratioP1;P1;durP2;ratioP2;P2;SDS_P1;SDS_P2;PMS_P1;PMS_P2;Temp;Humidity;BMP_temperature;BMP_pressure;BME280_temperature;BME280_humidity;BME280_pressure;Samples;Min_cycle;Max_cycle;Signal;HPM_P1;HPM_P2
2023/04/24 00:00:58;;;;;;;;;;;;;;;9.25;100.00;99719.94;4926293;29;20021;-80
2023/04/24 00:03:24;;;;;;;;;;;;;;;9.25;100.00;99724.41;4925754;29;19930;-80
2023/04/24 00:05:50;;;;;;;;;;;;;;;9.21;100.00;99721.25;4924209;29;20292;-79
2023/04/24 00:08:16;;;;;;;;;;;;;;;9.16;100.00;99728.78;4926157;29;19951;-79
2023/04/24 00:10:42;;;;;;;;;;;;;;;9.09;100.00;99720.69;4940965;29;19919;-79
2023/04/24 00:13:08;;;;;;;;;;;;;;;9.02;100.00;99730.16;4930889;29;19926;-80
2023/04/24 00:15:33;;;;;;;;;;;;;;;8.97;100.00;99729.78;4926757;29;20423;-79
2023/04/24 00:18:01;;;;;;;;;;;;;;;8.98;100.00;99731.44;4933353;29;20018;-79
2023/04/24 00:20:28;;;;;;;;;;;;;;;8.97;100.00;99733.25;4927357;29;20599;-79
2023/04/24 00:22:53;;;;;;;;;;;;;;;8.96;100.00;99731.59;4932682;29;20376;-79
2023/04/24 00:25:19;;;;;;;;;;;;;;;9.01;100.00;99731.16;4917366;29;19934;-79
2023/04/24 00:27:45;;;;;;;;;;;;;;;9.06;100.00;99723.63;4927485;29;19965;-78
2023/04/24 00:30:10;;;;;;;;;;;;;;;9.02;100.00;99725.72;4933112;29;20537;-79
2023/04/24 00:32:37;;;;;;;;;;;;;;;9.01;100.00;99728.50;4931203;29;19973;-79
2023/04/24 00:35:03;;;;;;;;;;;;;;;9.00;100.00;99721.59;4951072;28;19919;-79
2023/04/24 00:37:28;;;;;;;;;;;;;;;9.00;100.00;99719.78;4928234;29;19925;-79
2023/04/24 00:39:54;;;;;;;;;;;;;;;8.97;100.00;99725.34;4894327;29;19923;-79
2023/04/24 00:42:20;;;;;;;;;;;;;;;8.96;100.00;99720.22;4934165;29;20352;-75
2023/04/24 00:44:45;;;;;;;;;;;;;;;8.95;100.00;99721.22;4930868;29;19926;-75
2023/04/24 00:47:12;;;;;;;;;;;;;;;8.94;100.00;99709.84;4934495;28;20307;-79
2023/04/24 00:49:38;;;;;;;;;;;;;;;8.96;100.00;99712.31;4940820;28;19922;-79
2023/04/24 00:52:07;;;;;;;;;;;;;;;9.01;100.00;99718.81;4935796;29;19970;-79
2023/04/24 00:54:33;;;;;;;;;;;;;;;9.05;100.00;99714.03;4935801;29;20282;-79
2023/04/24 00:56:58;;;;;;;;;;;;;;;9.05;100.00;99712.25;4927099;29;19933;-76
2023/04/24 00:59:24;;;;;;;;;;;;;;;9.05;100.00;99717.50;4933566;29;20541;-75
2023/04/24 01:01:51;;;;;;;;;;;;;;;9.05;100.00;99712.25;4912012;29;19958;-76
2023/04/24 01:04:17;;;;;;;;;;;;;;;9.06;100.00;99713.06;4946709;28;19930;-75
2023/04/24 01:06:44;;;;;;;;;;;;;;;9.05;100.00;99717.50;4922269;29;19928;-79
2023/04/24 01:09:11;;;;;;;;;;;;;;;9.05;100.00;99714.03;4930881;29;20022;-79
2023/04/24 01:11:37;;;;;;;;;;;;;;;9.07;100.00;99717.34;4928887;29;19950;-79
2023/04/24 01:14:04;;;;;;;;;;;;;;;9.01;100.00;99715.34;4912460;29;20034;-79
2023/04/24 01:16:29;;;;;;;;;;;;;;;8.96;100.00;99715.78;4917216;29;20747;-79
2023/04/24 01:18:55;;;;;;;;;;;;;;;8.91;100.00;99725.94;4927578;29;19923;-79
2023/04/24 01:21:23;;;;;;;;;;;;;;;8.88;100.00;99727.09;4942265;28;19928;-80
2023/04/24 01:23:50;;;;;;;;;;;;;;;8.83;100.00;99725.88;4928323;29;19933;-79
2023/04/24 01:26:19;;;;;;;;;;;;;;;8.79;100.00;99726.19;4927928;29;19920;-80
2023/04/24 01:28:46;;;;;;;;;;;;;;;8.79;100.00;99730.63;4948861;28;19973;-79
2023/04/24 01:31:11;;;;;;;;;;;;;;;8.78;100.00;99731.59;4939969;28;19918;-79
2023/04/24 01:33:37;;;;;;;;;;;;;;;8.76;100.00;99729.09;4953673;28;19929;-79
2023/04/24 01:36:03;;;;;;;;;;;;;;;8.73;100.00;99734.69;4946363;28;19918;-79
2023/04/24 01:38:29;;;;;;;;;;;;;;;8.69;100.00;99725.44;4924619;29;19930;-79
2023/04/24 01:40:54;;;;;;;;;;;;;;;8.71;100.00;99731.38;4937840;28;19934;-79
2023/04/24 01:43:20;;;;;;;;;;;;;;;8.72;100.00;99729.56;4921966;29;20439;-79
2023/04/24 01:45:46;;;;;;;;;;;;;;;8.77;100.00;99727.31;4944806;28;19926;-79
2023/04/24 01:48:12;;;;;;;;;;;;;;;8.79;100.00;99726.19;4923593;29;20014;-80
2023/04/24 01:50:38;;;;;;;;;;;;;;;8.80;100.00;99732.28;4927295;29;19918;-79
2023/04/24 01:53:04;;;;;;;;;;;;;;;8.85;100.00;99729.19;4934779;28;20033;-79
2023/04/24 01:55:29;;;;;;;;;;;;;;;8.86;100.00;99734.31;4931469;29;19958;-79
2023/04/24 01:57:56;;;;;;;;;;;;;;;8.84;100.00;99736.25;4925201;29;19979;-79
2023/04/24 02:00:21;;;;;;;;;;;;;;;8.87;100.00;99735.16;4941376;28;19927;-80
2023/04/24 02:02:47;;;;;;;;;;;;;;;8.89;100.00;99735.81;4948385;28;20307;-80
2023/04/24 02:05:13;;;;;;;;;;;;;;;8.92;100.00;99732.88;4950690;28;19985;-80
2023/04/24 02:07:39;;;;;;;;;;;;;;;8.90;100.00;99733.03;4922154;29;19975;-80
2023/04/24 02:10:05;;;;;;;;;;;;;;;8.90;100.00;99733.03;4929878;29;19951;-80
2023/04/24 02:12:31;;;;;;;;;;;;;;;8.91;100.00;99728.59;4931468;29;19945;-80
2023/04/24 02:14:57;;;;;;;;;;;;;;;8.90;100.00;99724.31;4944204;28;20360;-79
2023/04/24 02:17:23;;;;;;;;;;;;;;;8.89;100.00;99730.53;4940025;28;19919;-79
2023/04/24 02:19:49;;;;;;;;;;;;;;;8.87;100.00;99729.88;4928277;29;19919;-79
2023/04/24 02:22:16;;;;;;;;;;;;;;;8.84;100.00;99731.00;4924530;29;20387;-79
2023/04/24 02:24:41;;;;;;;;;;;;;;;8.82;100.00;99738.25;4922311;29;19927;-79
2023/04/24 02:27:07;;;;;;;;;;;;;;;8.73;100.00;99736.50;4931144;29;20381;-79
2023/04/24 02:29:33;;;;;;;;;;;;;;;8.68;100.00;99740.41;4940157;28;20326;-80
2023/04/24 02:31:59;;;;;;;;;;;;;;;8.64;100.00;99746.97;4941450;28;19970;-79
2023/04/24 02:34:24;;;;;;;;;;;;;;;8.60;100.00;99745.56;4934096;29;19923;-80
2023/04/24 02:36:50;;;;;;;;;;;;;;;8.53;100.00;99745.34;4928065;29;20033;-79
2023/04/24 02:39:16;;;;;;;;;;;;;;;8.50;100.00;99750.91;4920968;29;19923;-79
2023/04/24 02:41:42;;;;;;;;;;;;;;;8.51;100.00;99751.72;4925271;29;19927;-79
2023/04/24 02:44:08;;;;;;;;;;;;;;;8.48;100.00;99744.94;4920761;29;19927;-79
2023/04/24 02:46:33;;;;;;;;;;;;;;;8.44;100.00;99748.88;4935468;28;19926;-80
2023/04/24 02:48:59;;;;;;;;;;;;;;;8.43;100.00;99748.03;4919893;29;19929;-80
2023/04/24 02:51:26;;;;;;;;;;;;;;;8.40;100.00;99760.66;4939547;28;19942;-79
2023/04/24 02:53:52;;;;;;;;;;;;;;;8.38;100.00;99749.41;4925389;29;20463;-79
2023/04/24 02:56:18;;;;;;;;;;;;;;;8.35;100.00;99754.97;4932014;29;19919;-79
2023/04/24 02:58:43;;;;;;;;;;;;;;;8.30;100.00;99747.53;4936582;29;19930;-80
2023/04/24 03:01:09;;;;;;;;;;;;;;;8.26;100.00;99749.66;4940470;29;20459;-79
2023/04/24 03:03:36;;;;;;;;;;;;;;;8.23;100.00;99749.94;4927522;29;20336;-79
2023/04/24 03:06:01;;;;;;;;;;;;;;;8.18;100.00;99747.75;4914614;29;20006;-79
2023/04/24 03:08:27;;;;;;;;;;;;;;;8.14;100.00;99751.63;4929083;29;21614;-79
2023/04/24 03:10:53;;;;;;;;;;;;;;;8.13;100.00;99754.41;4916901;29;19926;-79
2023/04/24 03:13:18;;;;;;;;;;;;;;;8.14;100.00;99749.00;4942281;28;20514;-80
2023/04/24 03:15:44;;;;;;;;;;;;;;;8.08;100.00;99752.22;4939426;28;19986;-79
2023/04/24 03:18:10;;;;;;;;;;;;;;;8.04;100.00;99750.84;4899396;29;19925;-79
2023/04/24 03:20:37;;;;;;;;;;;;;;;8.00;100.00;99746.84;4907488;29;21167;-80
2023/04/24 03:23:03;;;;;;;;;;;;;;;8.01;100.00;99757.22;4942963;28;19930;-79
2023/04/24 03:25:29;;;;;;;;;;;;;;;8.01;100.00;99757.22;4921275;29;19929;-79
2023/04/24 03:27:55;;;;;;;;;;;;;;;7.98;100.00;99759.34;4944743;28;20311;-80
2023/04/24 03:30:34;;;;;;;;;;;;;;;7.96;100.00;99756.84;4913146;29;20623;-79
2023/04/24 03:33:01;;;;;;;;;;;;;;;7.96;100.00;99751.56;4909646;29;19927;-76
2023/04/24 03:35:31;;;;;;;;;;;;;;;7.93;100.00;99750.03;4917954;29;19923;-76
2023/04/24 03:38:00;;;;;;;;;;;;;;;7.92;100.00;99755.44;4947301;28;19919;-80
2023/04/24 03:40:58;;;;;;;;;;;;;;;7.85;100.00;99742.03;4905944;29;19931;-79
2023/04/24 03:43:40;;;;;;;;;;;;;;;7.78;100.00;99748.84;4923367;29;19935;-78
2023/04/24 03:46:09;;;;;;;;;;;;;;;7.72;100.00;99755.53;4923536;29;19919;-79
2023/04/24 03:48:38;;;;;;;;;;;;;;;7.67;100.00;99757.75;4937732;28;19923;-78
2023/04/24 03:51:05;;;;;;;;;;;;;;;7.65;100.00;99759.69;4926766;29;20006;-79
2023/04/24 03:53:32;;;;;;;;;;;;;;;7.62;100.00;99762.59;4924510;29;20409;-80
2023/04/24 03:55:58;;;;;;;;;;;;;;;7.57;100.00;99773.53;4922619;29;20396;-79
2023/04/24 03:58:24;;;;;;;;;;;;;;;7.52;100.00;99763.47;4902062;29;19923;-79
2023/04/24 04:00:51;;;;;;;;;;;;;;;7.46;100.00;99769.28;4919305;29;19930;-78
2023/04/24 04:03:39;;;;;;;;;;;;;;;7.39;100.00;99769.00;4892275;29;19933;-79
2023/04/24 04:06:05;;;;;;;;;;;;;;;7.30;100.00;99769.84;4909907;29;19919;-79
2023/04/24 04:08:31;;;;;;;;;;;;;;;7.16;100.00;99781.63;4901756;29;19923;-79
2023/04/24 04:10:57;;;;;;;;;;;;;;;7.12;100.00;99778.44;4917654;29;19992;-79
2023/04/24 04:13:22;;;;;;;;;;;;;;;7.12;100.00;99782.88;4910889;29;19927;-78
2023/04/24 04:15:48;;;;;;;;;;;;;;;7.16;100.00;99776.34;4910849;29;19919;-78
2023/04/24 04:18:15;;;;;;;;;;;;;;;7.21;100.00;99779.41;4911215;29;20021;-78
2023/04/24 04:20:41;;;;;;;;;;;;;;;7.24;100.00;99768.63;4927053;29;20071;-78
2023/04/24 04:23:07;;;;;;;;;;;;;;;7.31;100.00;99774.16;4903253;29;20387;-78
2023/04/24 04:25:42;;;;;;;;;;;;;;;7.39;100.00;99771.63;4889253;29;20577;-78
2023/04/24 04:28:07;;;;;;;;;;;;;;;7.48;100.00;99775.22;4891634;29;19926;-75
2023/04/24 04:30:33;;;;;;;;;;;;;;;7.54;100.00;99773.84;4898433;29;19920;-75
2023/04/24 04:33:02;;;;;;;;;;;;;;;7.60;100.00;99778.53;4924504;29;19930;-78
2023/04/24 04:35:29;;;;;;;;;;;;;;;7.64;100.00;99781.72;4894179;29;20133;-78
2023/04/24 04:37:58;;;;;;;;;;;;;;;7.63;100.00;99775.59;4924719;29;19958;-78
2023/04/24 04:40:46;;;;;;;;;;;;;;;7.64;100.00;99782.56;4909614;29;20062;-78
2023/04/24 04:43:16;;;;;;;;;;;;;;;7.61;100.00;99784.63;4923983;29;19930;-79
2023/04/24 04:45:51;;;;;;;;;;;;;;;7.59;100.00;99782.13;4926384;29;19923;-79
2023/04/24 04:48:28;;;;;;;;;;;;;;;7.64;100.00;99786.97;4903579;29;20273;-79
2023/04/24 04:50:58;;;;;;;;;;;;;;;7.56;100.00;99791.13;4890323;29;20017;-79
2023/04/24 04:53:26;;;;;;;;;;;;;;;7.49;100.00;99792.66;4904602;29;19927;-79
2023/04/24 04:55:52;;;;;;;;;;;;;;;7.44;100.00;99792.25;4924648;29;19926;-79
2023/04/24 04:58:19;;;;;;;;;;;;;;;7.36;100.00;99795.56;4889095;29;19923;-79
2023/04/24 05:00:46;;;;;;;;;;;;;;;7.35;100.00;99791.28;4895733;29;19929;-79
2023/04/24 05:03:37;;;;;;;;;;;;;;;7.33;100.00;99793.22;4894674;29;20400;-79
2023/04/24 05:06:07;;;;;;;;;;;;;;;7.38;100.00;99800.69;4907404;29;19950;-79
2023/04/24 05:08:36;;;;;;;;;;;;;;;7.36;100.00;99802.66;4909349;29;19919;-79
2023/04/24 05:11:03;;;;;;;;;;;;;;;7.25;100.00;99811.47;4917674;29;19926;-79
2023/04/24 05:13:31;;;;;;;;;;;;;;;7.16;100.00;99815.78;4901785;29;20572;-79
2023/04/24 05:15:57;;;;;;;;;;;;;;;7.09;100.00;99828.63;4913562;29;19923;-79
2023/04/24 05:18:22;;;;;;;;;;;;;;;7.05;100.00;99825.47;4924195;28;20550;-79
2023/04/24 05:20:49;;;;;;;;;;;;;;;7.03;100.00;99829.19;4917214;29;19923;-79
2023/04/24 05:23:14;;;;;;;;;;;;;;;7.01;100.00;99825.84;4905966;29;19950;-79
2023/04/24 05:25:43;;;;;;;;;;;;;;;6.97;100.00;99824.47;4924999;29;20356;-79
2023/04/24 05:28:11;;;;;;;;;;;;;;;6.92;100.00;99830.13;4922967;29;19970;-79
2023/04/24 05:30:37;;;;;;;;;;;;;;;6.88;100.00;99836.66;4876317;29;19927;-80
2023/04/24 05:33:03;;;;;;;;;;;;;;;6.87;100.00;99837.59;4915940;29;20350;-79
2023/04/24 05:35:31;;;;;;;;;;;;;;;6.91;100.00;99831.13;4905630;29;19927;-79
2023/04/24 05:37:57;;;;;;;;;;;;;;;6.92;100.00;99830.13;4908147;29;20380;-76
2023/04/24 05:40:23;;;;;;;;;;;;;;;6.94;100.00;99834.28;4917309;29;20308;-76
2023/04/24 05:42:49;;;;;;;;;;;;;;;6.94;100.00;99829.03;4918749;29;19953;-79
2023/04/24 05:45:16;;;;;;;;;;;;;;;6.93;100.00;99834.41;4889959;29;19923;-79
2023/04/24 05:47:43;;;;;;;;;;;;;;;6.90;100.00;99842.56;4917908;29;19927;-79
2023/04/24 05:50:10;;;;;;;;;;;;;;;6.82;100.00;99841.47;4892477;29;20006;-79
2023/04/24 05:52:36;;;;;;;;;;;;;;;6.73;100.00;99841.44;4918251;29;19926;-79
2023/04/24 05:55:05;;;;;;;;;;;;;;;6.64;100.00;99850.97;4922750;29;20006;-78
2023/04/24 05:57:33;;;;;;;;;;;;;;;6.57;100.00;99848.88;4901121;29;20009;-79
2023/04/24 06:00:04;;;;;;;;;;;;;;;6.54;100.00;99854.38;4907424;29;19919;-78
2023/04/24 06:02:39;;;;;;;;;;;;;;;6.50;100.00;99860.03;4925154;28;20530;-79
2023/04/24 06:05:08;;;;;;;;;;;;;;;6.46;100.00;99869.97;4926160;29;19926;-79
2023/04/24 06:07:34;;;;;;;;;;;;;;;6.45;100.00;99861.25;4941321;28;21226;-78
2023/04/24 06:10:03;;;;;;;;;;;;;;;6.45;100.00;99869.13;4921668;29;19918;-79
2023/04/24 06:12:33;;;;;;;;;;;;;;;6.49;100.00;99867.06;4928184;29;19919;-79
2023/04/24 06:15:05;;;;;;;;;;;;;;;6.49;100.00;99872.31;4911590;29;19993;-79
2023/04/24 06:17:50;;;;;;;;;;;;;;;6.55;100.00;99874.41;4914427;29;20021;-79
2023/04/24 06:20:17;;;;;;;;;;;;;;;6.55;100.00;99873.56;4942052;28;19923;-79
2023/04/24 06:22:43;;;;;;;;;;;;;;;6.58;100.00;99875.94;4929068;29;19930;-76
2023/04/24 06:25:09;;;;;;;;;;;;;;;6.54;100.00;99877.19;4939061;28;19926;-76
2023/04/24 06:27:35;;;;;;;;;;;;;;;6.55;100.00;99873.56;4929648;29;19974;-79
2023/04/24 06:30:01;;;;;;;;;;;;;;;6.51;100.00;99891.41;4941599;28;19929;-79
2023/04/24 06:32:27;;;;;;;;;;;;;;;6.48;100.00;99886.41;4926222;29;19918;-79
2023/04/24 06:34:53;;;;;;;;;;;;;;;6.39;100.00;99895.06;4930975;29;19919;-79
2023/04/24 06:37:20;;;;;;;;;;;;;;;6.29;100.00;99895.03;4939552;28;19929;-80
2023/04/24 06:39:46;;;;;;;;;;;;;;;6.24;100.00;99905.06;4925288;29;20291;-80
2023/04/24 06:42:11;;;;;;;;;;;;;;;6.24;100.00;99905.06;4933552;29;20021;-80
2023/04/24 06:44:40;;;;;;;;;;;;;;;6.13;100.00;99911.22;4929034;29;19925;-79
2023/04/24 06:47:15;;;;;;;;;;;;;;;6.01;100.00;99910.41;4926583;29;19919;-79
2023/04/24 06:49:42;;;;;;;;;;;;;;;5.95;100.00;99922.25;4941819;28;19919;-79
2023/04/24 06:52:07;;;;;;;;;;;;;;;5.91;100.00;99913.00;4930793;29;19919;-79
2023/04/24 06:54:33;;;;;;;;;;;;;;;5.92;100.00;99918.13;4936607;29;19923;-79
2023/04/24 06:57:00;;;;;;;;;;;;;;;5.86;100.00;99920.41;4924534;29;19930;-78
2023/04/24 06:59:27;;;;;;;;;;;;;;;5.88;100.00;99931.59;4936143;29;19961;-79
2023/04/24 07:01:53;;;;;;;;;;;;;;;5.86;100.00;99934.34;4933152;29;19929;-76
2023/04/24 07:04:19;;;;;;;;;;;;;;;5.81;100.00;99937.34;4912534;29;19927;-76
2023/04/24 07:06:48;;;;;;;;;;;;;;;5.83;100.00;99938.06;4901704;29;20014;-79
2023/04/24 07:09:15;;;;;;;;;;;;;;;5.78;100.00;99942.84;4916930;29;19927;-79
2023/04/24 07:11:41;;;;;;;;;;;;;;;5.80;100.00;99946.16;4900129;29;20365;-79
2023/04/24 07:14:07;;;;;;;;;;;;;;;5.78;100.00;99952.50;4911052;29;19962;-80
2023/04/24 07:16:33;;;;;;;;;;;;;;;5.76;100.00;99951.78;4927315;29;19926;-79
2023/04/24 07:18:58;;;;;;;;;;;;;;;5.83;100.00;99958.19;4926471;29;20520;-79
2023/04/24 07:21:25;;;;;;;;;;;;;;;5.81;100.00;99960.13;4931380;29;20033;-79
2023/04/24 07:23:51;;;;;;;;;;;;;;;5.81;100.00;99958.31;4880364;29;19934;-79
2023/04/24 07:26:16;;;;;;;;;;;;;;;5.80;100.00;99964.53;4936435;29;19919;-79
2023/04/24 07:28:42;;;;;;;;;;;;;;;5.82;100.00;99967.03;4927836;29;20295;-79
2023/04/24 07:31:08;;;;;;;;;;;;;;;5.80;100.00;99961.91;4915962;29;19978;-79
2023/04/24 07:33:34;;;;;;;;;;;;;;;5.74;100.00;99966.81;4914022;29;19942;-79
2023/04/24 07:36:00;;;;;;;;;;;;;;;5.75;100.00;99969.31;4923019;29;19972;-79
2023/04/24 07:38:26;;;;;;;;;;;;;;;5.74;100.00;99975.53;4934283;29;20294;-79
2023/04/24 07:40:52;;;;;;;;;;;;;;;5.74;100.00;99970.28;4915756;29;20014;-79
2023/04/24 07:43:20;;;;;;;;;;;;;;;5.79;100.00;99972.53;4926124;29;20055;-79
2023/04/24 07:45:45;;;;;;;;;;;;;;;5.79;100.00;99981.25;4912188;29;20367;-79
2023/04/24 07:48:13;;;;;;;;;;;;;;;5.81;100.00;99991.59;4901536;29;19925;-79
2023/04/24 07:50:39;;;;;;;;;;;;;;;5.76;100.00;100001.63;4911852;29;20593;-78
2023/04/24 07:53:05;;;;;;;;;;;;;;;5.61;100.00;100004.50;4920404;29;19925;-79
2023/04/24 07:55:31;;;;;;;;;;;;;;;5.55;100.00;100002.38;4929019;29;19977;-79
2023/04/24 07:57:56;;;;;;;;;;;;;;;5.48;100.00;100012.53;4908545;29;20010;-79
2023/04/24 08:00:22;;;;;;;;;;;;;;;5.39;100.00;100013.25;4930418;29;19958;-79
2023/04/24 08:02:48;;;;;;;;;;;;;;;5.37;100.00;100013.38;4928182;29;19923;-79
2023/04/24 08:05:13;;;;;;;;;;;;;;;5.39;100.00;100016.72;4904076;29;19919;-79
2023/04/24 08:07:39;;;;;;;;;;;;;;;5.46;100.00;100012.63;4908644;29;19978;-79
2023/04/24 08:10:05;;;;;;;;;;;;;;;5.54;100.00;100025.13;4910481;29;19926;-79
2023/04/24 08:12:31;;;;;;;;;;;;;;;5.48;100.00;100030.88;4918995;29;19976;-80
2023/04/24 08:14:57;;;;;;;;;;;;;;;5.37;100.00;100030.91;4917587;29;19998;-79
2023/04/24 08:17:22;;;;;;;;;;;;;;;5.33;100.00;100028.53;4908141;29;20348;-76
2023/04/24 08:19:48;;;;;;;;;;;;;;;5.28;100.00;100030.66;4912075;29;19919;-76
2023/04/24 08:22:16;;;;;;;;;;;;;;;5.17;100.00;100041.16;4907392;29;19923;-79
2023/04/24 08:24:43;;;;;;;;;;;;;;;5.17;100.00;100051.63;4919018;29;20449;-80
2023/04/24 08:27:10;;;;;;;;;;;;;;;5.20;100.00;100044.38;4909675;29;20005;-79
2023/04/24 08:29:36;;;;;;;;;;;;;;;5.26;100.00;100050.91;4906276;29;20074;-79
2023/04/24 08:32:01;;;;;;;;;;;;;;;5.29;100.00;100052.44;4925179;29;19927;-80
2023/04/24 08:34:27;;;;;;;;;;;;;;;5.25;100.00;100054.50;4897431;29;20014;-79
2023/04/24 08:36:53;;;;;;;;;;;;;;;5.31;100.00;100055.78;4910322;29;19919;-79
2023/04/24 08:39:20;;;;;;;;;;;;;;;5.28;100.00;100063.88;4920167;29;20323;-79
2023/04/24 08:41:48;;;;;;;;;;;;;;;5.26;100.00;100056.16;4890548;29;19919;-79
2023/04/24 08:44:15;;;;;;;;;;;;;;;5.35;100.00;100049.38;4920913;29;19927;-79
2023/04/24 08:46:42;;;;;;;;;;;;;;;5.43;100.00;100060.06;4919283;29;19927;-80
2023/04/24 08:49:08;;;;;;;;;;;;;;;5.49;100.00;100068.41;4903271;29;20094;-79
2023/04/24 08:51:33;;;;;;;;;;;;;;;5.38;100.00;100069.25;4926112;28;20427;-80
2023/04/24 08:53:59;;;;;;;;;;;;;;;5.34;100.00;100069.50;4909679;29;19930;-79
2023/04/24 08:56:26;;;;;;;;;;;;;;;5.31;100.00;100082.84;4911376;29;19969;-80
2023/04/24 08:58:53;;;;;;;;;;;;;;;5.26;100.00;100079.72;4924782;29;20022;-79
2023/04/24 09:01:20;;;;;;;;;;;;;;;5.25;100.00;100087.72;4905329;29;20649;-79
2023/04/24 09:03:48;;;;;;;;;;;;;;;5.25;100.00;100088.56;4913098;29;20557;-80
2023/04/24 09:06:14;;;;;;;;;;;;;;;5.21;100.00;100098.44;4912348;29;19923;-80
2023/04/24 09:08:40;;;;;;;;;;;;;;;5.22;100.00;100097.47;4910017;29;20022;-80
2023/04/24 09:11:06;;;;;;;;;;;;;;;5.26;100.00;100099.84;4927700;29;19919;-79
2023/04/24 09:13:33;;;;;;;;;;;;;;;5.27;100.00;100104.97;4930440;29;19919;-79
2023/04/24 09:16:00;;;;;;;;;;;;;;;5.33;100.00;100096.66;4920063;29;20025;-79
2023/04/24 09:18:26;;;;;;;;;;;;;;;5.37;100.00;100107.72;4918657;29;20480;-78
2023/04/24 09:21:00;;;;;;;;;;;;;;;5.45;100.00;100115.84;4910715;29;20021;-78
2023/04/24 09:23:28;;;;;;;;;;;;;;;5.51;100.00;100119.75;4926859;29;19927;-78
2023/04/24 09:25:57;;;;;;;;;;;;;;;5.54;100.00;100124.75;4925246;29;20314;-78
2023/04/24 09:28:26;;;;;;;;;;;;;;;5.59;100.00;100130.50;4922603;29;20376;-78
2023/04/24 09:31:04;;;;;;;;;;;;;;;5.59;100.00;100132.25;4931886;29;20387;-79
2023/04/24 09:33:30;;;;;;;;;;;;;;;5.57;100.00;100123.72;4921014;29;19923;-75
2023/04/24 09:35:56;;;;;;;;;;;;;;;5.66;100.00;100130.00;4933259;29;19918;-75
2023/04/24 09:38:35;;;;;;;;;;;;;;;5.70;100.00;100134.88;4912013;29;20013;-78
2023/04/24 09:41:03;;;;;;;;;;;;;;;5.78;100.00;100133.47;4940153;28;19919;-79
2023/04/24 09:43:28;;;;;;;;;;;;;;;5.75;100.00;100134.53;4892764;29;19923;-79
2023/04/24 09:45:59;;;;;;;;;;;;;;;5.83;100.00;100132.16;4925625;29;19927;-79
2023/04/24 09:48:31;;;;;;;;;;;;;;;5.83;100.00;100136.53;4915601;29;19953;-80
2023/04/24 09:50:56;;;;;;;;;;;;;;;5.82;100.00;100140.13;4921474;29;19977;-80
2023/04/24 09:53:26;;;;;;;;;;;;;;;5.86;100.00;100145.97;4902322;29;19941;-79
2023/04/24 09:55:52;;;;;;;;;;;;;;;5.90;100.00;100136.91;4921257;29;19930;-79
2023/04/24 09:58:24;;;;;;;;;;;;;;;6.14;100.00;100136.78;4923052;29;19923;-80
2023/04/24 10:00:52;;;;;;;;;;;;;;;6.25;100.00;100141.16;4926963;29;19970;-78
2023/04/24 10:03:18;;;;;;;;;;;;;;;6.32;100.00;100146.75;4920556;29;20581;-78
2023/04/24 10:05:46;;;;;;;;;;;;;;;6.34;100.00;100150.06;4932860;29;19933;-79
2023/04/24 10:08:12;;;;;;;;;;;;;;;6.30;100.00;100152.13;4934256;29;19969;-79
2023/04/24 10:10:38;;;;;;;;;;;;;;;6.42;100.00;100155.53;4929039;29;19919;-79
2023/04/24 10:13:04;;;;;;;;;;;;;;;6.39;100.00;100153.16;4913512;29;20294;-79
2023/04/24 10:15:30;;;;;;;;;;;;;;;6.42;100.00;100160.78;4921610;29;19950;-79
2023/04/24 10:17:58;;;;;;;;;;;;;;;6.53;100.00;100167.78;4871816;29;20408;-79
2023/04/24 10:20:29;;;;;;;;;;;;;;;6.68;100.00;100164.88;4909810;29;19982;-79
2023/04/24 10:22:55;;;;;;;;;;;;;;;6.73;100.00;100165.34;4933206;29;19970;-79
2023/04/24 10:25:23;;;;;;;;;;;;;;;6.75;100.00;100173.94;4937846;29;20005;-79
2023/04/24 10:27:50;;;;;;;;;;;;;;;6.65;100.00;100176.47;4932384;29;20399;-78
2023/04/24 10:30:16;;;;;;;;;;;;;;;6.67;100.00;100179.78;4930586;29;19998;-79
2023/04/24 10:32:41;;;;;;;;;;;;;;;6.78;100.00;100178.09;4929941;29;20017;-79
2023/04/24 10:35:12;;;;;;;;;;;;;;;6.69;100.00;100187.56;4911618;29;20348;-78
2023/04/24 10:37:40;;;;;;;;;;;;;;;6.72;100.00;100192.56;4933820;29;20035;-79
2023/04/24 10:40:07;;;;;;;;;;;;;;;6.65;100.00;100189.63;4921001;29;19930;-78
2023/04/24 10:42:33;;;;;;;;;;;;;;;6.70;100.00;100202.38;4923977;29;20419;-79
2023/04/24 10:45:01;;;;;;;;;;;;;;;6.68;100.00;100199.88;4934657;29;19923;-78
2023/04/24 10:47:27;;;;;;;;;;;;;;;6.54;100.00;100211.50;4939159;29;19930;-78
2023/04/24 10:49:52;;;;;;;;;;;;;;;6.54;100.00;100208.88;4910148;29;19938;-78
2023/04/24 10:52:18;;;;;;;;;;;;;;;6.60;100.00;100217.19;4908594;29;19923;-78
2023/04/24 10:54:44;;;;;;;;;;;;;;;6.63;100.00;100214.31;4919486;29;19981;-78
2023/04/24 10:57:22;;;;;;;;;;;;;;;6.64;100.00;100216.00;4943004;28;19927;-78
2023/04/24 11:00:09;;;;;;;;;;;;;;;6.77;100.00;100226.34;4930670;29;19919;-78
2023/04/24 11:02:39;;;;;;;;;;;;;;;6.88;100.00;100225.47;4921318;29;20557;-78
2023/04/24 11:05:06;;;;;;;;;;;;;;;6.78;100.00;100228.84;4913088;29;19983;-78
2023/04/24 11:07:50;;;;;;;;;;;;;;;6.74;100.00;100224.78;4915749;29;19926;-78
2023/04/24 11:10:28;;;;;;;;;;;;;;;6.68;100.00;100227.91;4913852;29;19994;-78
2023/04/24 11:12:53;;;;;;;;;;;;;;;6.65;100.00;100233.41;4939743;28;19919;-77
2023/04/24 11:15:19;;;;;;;;;;;;;;;6.79;100.00;100243.66;4913849;29;19929;-78
2023/04/24 11:17:45;;;;;;;;;;;;;;;6.85;100.00;100252.00;4908234;29;19990;-78
2023/04/24 11:20:11;;;;;;;;;;;;;;;6.91;100.00;100254.13;4910033;29;20367;-78
2023/04/24 11:22:42;;;;;;;;;;;;;;;6.94;100.00;100253.88;4925707;29;19923;-77
2023/04/24 11:25:11;;;;;;;;;;;;;;;6.85;100.00;100246.75;4924240;29;19927;-76
2023/04/24 11:27:40;;;;;;;;;;;;;;;6.84;100.00;100256.41;4920432;29;19924;-79
2023/04/24 11:30:06;;;;;;;;;;;;;;;6.94;100.00;100256.50;4918680;29;19922;-80
2023/04/24 11:32:33;;;;;;;;;;;;;;;7.07;100.00;100256.34;4907993;29;20411;-80
2023/04/24 11:35:03;;;;;;;;;;;;;;;7.19;100.00;100246.59;4934908;29;19927;-79
2023/04/24 11:37:34;;;;;;;;;;;;;;;7.12;100.00;100256.78;4919602;29;19929;-81
2023/04/24 11:40:00;;;;;;;;;;;;;;;7.01;100.00;100256.81;4905524;29;19923;-79
2023/04/24 11:42:27;;;;;;;;;;;;;;;6.93;100.00;100254.81;4908398;29;19990;-79
2023/04/24 11:44:55;;;;;;;;;;;;;;;6.92;100.00;100259.25;4917766;29;19930;-79
2023/04/24 11:47:27;;;;;;;;;;;;;;;7.01;100.00;100256.81;4914612;29;19919;-79
2023/04/24 11:49:53;;;;;;;;;;;;;;;7.07;100.00;100262.41;4908852;29;19956;-79
2023/04/24 11:52:19;;;;;;;;;;;;;;;7.07;100.00;100262.41;4915953;29;19920;-76
2023/04/24 11:54:49;;;;;;;;;;;;;;;7.09;100.00;100271.97;4914029;29;19923;-76
2023/04/24 11:57:14;;;;;;;;;;;;;;;7.13;100.00;100279.50;4906837;29;19954;-79
2023/04/24 11:59:40;;;;;;;;;;;;;;;7.18;100.00;100264.16;4906610;29;20030;-79
2023/04/24 12:02:06;;;;;;;;;;;;;;;7.22;100.00;100267.38;4914271;29;20065;-78
2023/04/24 12:04:39;;;;;;;;;;;;;;;7.24;100.00;100268.09;4920867;29;19928;-79
2023/04/24 12:07:05;;;;;;;;;;;;;;;7.28;100.00;100273.91;4939788;28;19923;-79
2023/04/24 12:09:47;;;;;;;;;;;;;;;7.25;100.00;100269.75;4898174;29;19927;-78
2023/04/24 12:12:14;;;;;;;;;;;;;;;7.25;100.00;100276.78;4930326;29;20356;-78
2023/04/24 12:14:43;;;;;;;;;;;;;;;7.18;100.00;100277.28;4935704;29;20388;-79
2023/04/24 12:17:09;;;;;;;;;;;;;;;7.15;100.00;100276.72;4902741;29;19919;-78
2023/04/24 12:19:35;;;;;;;;;;;;;;;7.08;100.00;100286.91;4925094;29;20347;-78
2023/04/24 12:22:02;;;;;;;;;;;;;;;6.93;100.00;100296.84;4911762;29;19930;-79
2023/04/24 12:24:28;;;;;;;;;;;;;;;6.81;100.00;100296.91;4936003;29;19927;-79
2023/04/24 12:26:54;;;;;;;;;;;;;;;6.85;100.00;100299.28;4914397;29;19926;-78
2023/04/24 12:29:20;;;;;;;;;;;;;;;6.97;100.00;100300.91;4938494;28;19927;-79
2023/04/24 12:31:46;;;;;;;;;;;;;;;7.09;100.00;100300.88;4928284;29;19919;-78
2023/04/24 12:34:21;;;;;;;;;;;;;;;7.12;100.00;100304.09;4911386;29;20292;-79
2023/04/24 12:36:47;;;;;;;;;;;;;;;7.05;100.00;100300.28;4921255;29;19919;-78
2023/04/24 12:39:17;;;;;;;;;;;;;;;7.07;100.00;100299.19;4915803;29;19923;-78
2023/04/24 12:41:59;;;;;;;;;;;;;;;7.17;100.00;100304.53;4930044;29;19920;-79
2023/04/24 12:44:34;;;;;;;;;;;;;;;7.18;100.00;100306.22;4912239;29;19958;-79